CheckWX is a tool to help pilots better visualize weather data.  It is not intended as a substitute for an official pre-flight weather briefing.

05:34:59 UTC

KJAQ METAR
Westover Field Amador County Airport
Jackson, California, USA
Current

20 mins ago

KJAQ 240515Z AUTO 11004KT 10SM OVC100 06/01 A3027 RMK AO1 T00550008
Observed
Feb-24 @ 05:15 UTC
Wind
  • 110° at 4 KTS
Visibility
10 SM
Flight Rules
VFR
Cloud Levels
  • Overcast at 10,000' AGL
Temperature
C / 43°F
Dewpoint
C / 34°F
Humidity
71%
Altimeter
30.27" Hg
Pressure
1025.02 hPa
Previous

40 mins ago

KJAQ 240455Z AUTO 00000KT 10SM OVC100 06/01 A3028 RMK AO1 T00560006
Observed
Feb-24 @ 04:55 UTC
Visibility
10 SM
Flight Rules
VFR
Cloud Levels
  • Overcast at 10,000' AGL
Temperature
C / 43°F
Dewpoint
C / 34°F
Humidity
71%
Altimeter
30.28" Hg
Pressure
1025.42 hPa
Previous

60 mins ago

KJAQ 240435Z AUTO 10004KT 10SM OVC100 06/00 A3028 RMK AO1 T00600003
Observed
Feb-24 @ 04:35 UTC
Wind
  • 100° at 4 KTS
Visibility
10 SM
Flight Rules
VFR
Cloud Levels
  • Overcast at 10,000' AGL
Temperature
C / 43°F
Dewpoint
C / 32°F
Humidity
66%
Altimeter
30.28" Hg
Pressure
1025.42 hPa